CheckWX is a tool to help pilots better visualize weather data.  It is not intended as a substitute for an official pre-flight weather briefing.

04:18:00 UTC

SCEL TAF
Comodoro Arturo Merino Benítez International Airport
Santiago, Chile
TAF SCEL 262209Z 2700/2724 15004KT 8000 SCT140 BKN170 TX11/2718Z TN04/2711Z TEMPO 2708/2714 VRB02KT 4000 BR BECMG 2716/2718 18006KT FEW100 BKN150

Jun-27@
00:00 UTC

Jun-27 @ 00:00 UTC

Jun-27@
16:00 UTC

Jun-27 @ 16:00 UTC

TAF SCEL 262209Z 2700/2724 15004KT 8000 SCT140 BKN170 TX11/2718Z TN04/2711Z
Wind
  • 150° at 4 KTS
Cloud Levels
  • Scattered at 14,000' AGL
  • Broken at 17,000' AGL

Jun-27@
08:00 UTC

Jun-27 @ 08:00 UTC

Jun-27@
14:00 UTC

Jun-27 @ 14:00 UTC

TEMPO 2708/2714 VRB02KT 4000 BR

Temporary

Temporary Changes expected for less than half the time period

Wind
  • Variable at 2 KTS
Conditions
Mist

Jun-27@
16:00 UTC

Jun-27 @ 16:00 UTC

Jun-28@
00:00 UTC

Jun-28 @ 00:00 UTC

BECMG 2716/2718 18006KT FEW100 BKN150

Becoming

Becoming Conditions expected by Thu, Jun 27, 2019 @ 18:00 UTC

Wind
  • 180° at 6 KTS
Cloud Levels
  • Few at 10,000' AGL
  • Broken at 15,000' AGL